Time;durP1;ratioP1;P1;durP2;ratioP2;P2;SDS_P1;SDS_P2;PMS_P1;PMS_P2;Temp;Humidity;BMP_temperature;BMP_pressure;BME280_temperature;BME280_humidity;BME280_pressure;Samples;Min_cycle;Max_cycle;Signal;HPM_P1;HPM_P2
2024/02/10 00:00:59;;;;;;;1.75;1.20;;;;;;;9.58;86.13;98578.63;15736538;28;20102;-50
2024/02/10 00:08:37;;;;;;;0.10;0.10;;;;;;;9.84;84.69;98573.44;15736046;28;20068;-51
2024/02/10 00:16:12;;;;;;;0.75;0.75;;;;;;;9.92;84.49;98576.44;15748199;28;20042;-48
2024/02/10 00:23:48;;;;;;;0.20;0.13;;;;;;;9.80;84.37;98572.34;15736330;28;20052;-49
2024/02/10 00:31:23;;;;;;;0.38;0.32;;;;;;;9.87;84.75;98572.91;15718685;28;20520;-53
2024/02/10 00:38:58;;;;;;;0.08;0.08;;;;;;;9.64;85.67;98577.59;15734983;28;20052;-47
2024/02/10 00:46:31;;;;;;;0.00;0.00;;;;;;;9.62;85.69;98571.69;15704395;28;20037;-48
2024/02/10 00:54:06;;;;;;;0.75;0.63;;;;;;;9.67;85.19;98576.28;15700989;28;20068;-47
2024/02/10 01:01:42;;;;;;;0.77;0.68;;;;;;;9.58;86.15;98567.09;15734207;28;20061;-50
2024/02/10 01:09:17;;;;;;;0.63;0.63;;;;;;;9.28;87.33;98576.53;15718443;28;20045;-48
2024/02/10 01:16:53;;;;;;;0.00;0.00;;;;;;;9.43;86.89;98563.25;15732360;28;20049;-49
2024/02/10 01:24:31;;;;;;;0.05;0.05;;;;;;;9.31;87.40;98567.16;15736731;28;20095;-48
2024/02/10 01:32:09;;;;;;;0.00;0.00;;;;;;;9.59;86.17;98569.50;15703673;28;20845;-50
2024/02/10 01:39:44;;;;;;;0.10;0.10;;;;;;;9.43;87.19;98573.16;15700184;28;20037;-51
2024/02/10 01:47:20;;;;;;;0.00;0.00;;;;;;;9.47;87.08;98565.44;15723194;28;20049;-50
2024/02/10 01:54:54;;;;;;;0.28;0.22;;;;;;;9.48;86.74;98567.84;15731431;28;20118;-48
2024/02/10 02:02:30;;;;;;;0.35;0.35;;;;;;;9.57;85.94;98562.81;15704811;28;20037;-47
2024/02/10 02:10:08;;;;;;;0.00;0.00;;;;;;;9.65;85.97;98563.16;15723077;28;20544;-51
2024/02/10 02:17:42;;;;;;;0.60;0.60;;;;;;;9.55;86.22;98573.78;15743414;28;20483;-49
2024/02/10 02:25:18;;;;;;;0.00;0.00;;;;;;;9.76;85.79;98571.25;15726008;28;20040;-49
2024/02/10 02:33:03;;;;;;;0.00;0.00;;;;;;;9.72;86.59;98573.63;15723987;28;20504;-51
2024/02/10 02:40:37;;;;;;;0.00;0.00;;;;;;;10.03;84.84;98565.78;15729789;28;20045;-49
2024/02/10 02:48:11;;;;;;;0.00;0.00;;;;;;;9.88;84.98;98561.94;15727879;28;20124;-48
2024/02/10 02:55:47;;;;;;;0.30;0.30;;;;;;;9.76;86.50;98569.38;15722883;28;20444;-49
2024/02/10 03:03:21;;;;;;;0.50;0.45;;;;;;;9.55;86.63;98554.22;15708268;28;20036;-49
2024/02/10 03:10:56;;;;;;;0.30;0.30;;;;;;;9.87;85.75;98556.84;15712492;28;20121;-53
2024/02/10 03:18:30;;;;;;;0.00;0.00;;;;;;;10.01;85.47;98563.34;15737765;28;20051;-47
2024/02/10 03:26:05;;;;;;;0.00;0.00;;;;;;;9.93;86.28;98553.13;15737970;28;20048;-50
2024/02/10 03:33:38;;;;;;;1.33;0.73;;;;;;;10.01;85.15;98555.31;15740635;28;20037;-47
2024/02/10 03:41:15;;;;;;;0.00;0.00;;;;;;;9.90;85.76;98556.34;15715050;28;20064;-46
2024/02/10 03:48:50;;;;;;;0.17;0.17;;;;;;;10.12;85.27;98551.63;15716942;28;20041;-47
2024/02/10 03:56:27;;;;;;;0.73;0.63;;;;;;;9.82;87.52;98551.44;15723969;22;20047;-48
2024/02/10 04:04:01;;;;;;;0.00;0.00;;;;;;;9.86;87.41;98550.69;15773503;28;20574;-44
2024/02/10 04:11:37;;;;;;;0.20;0.20;;;;;;;9.77;88.08;98549.56;15735242;28;20052;-44
2024/02/10 04:19:14;;;;;;;0.00;0.00;;;;;;;9.82;87.57;98546.91;15733288;28;20048;-43
2024/02/10 04:26:49;;;;;;;0.03;0.03;;;;;;;9.70;88.46;98541.75;15731717;28;20041;-47
2024/02/10 04:34:30;;;;;;;0.28;0.28;;;;;;;9.77;88.53;98532.69;15733027;28;20198;-47
2024/02/10 04:42:06;;;;;;;0.38;0.30;;;;;;;10.00;87.14;98529.59;15734822;28;20594;-45
2024/02/10 04:49:39;;;;;;;0.10;0.10;;;;;;;9.90;88.21;98534.91;15772462;28;20135;-45
2024/02/10 04:57:14;;;;;;;;;;;;;;;9.86;88.21;98534.59;15722432;28;20037;-47
2024/02/10 05:04:47;;;;;;;0.08;0.08;;;;;;;9.89;88.38;98530.59;15707156;28;19964;-44
2024/02/10 05:12:22;;;;;;;0.00;0.00;;;;;;;9.93;89.23;98529.00;15672154;28;20045;-44
2024/02/10 05:19:56;;;;;;;0.45;0.45;;;;;;;9.63;90.31;98535.00;15669229;28;20394;-47
2024/02/10 05:27:31;;;;;;;0.10;0.10;;;;;;;9.59;90.20;98529.34;15655622;28;20099;-45
2024/02/10 05:35:10;;;;;;;0.20;0.20;;;;;;;10.06;89.07;98535.78;15671504;28;20039;-46
2024/02/10 05:42:47;;;;;;;0.10;0.10;;;;;;;9.93;87.21;98529.00;15652483;28;20033;-46
2024/02/10 05:50:27;;;;;;;0.85;0.25;;;;;;;9.76;89.15;98537.22;15620039;28;20056;-49
2024/02/10 05:58:03;;;;;;;0.10;0.10;;;;;;;9.39;91.93;98546.06;15671542;28;20052;-44
2024/02/10 06:05:39;;;;;;;0.00;0.00;;;;;;;9.60;91.56;98538.97;15741693;28;20578;-44
2024/02/10 06:13:15;;;;;;;0.00;0.00;;;;;;;9.84;89.59;98539.44;15744004;28;20033;-45
2024/02/10 06:20:48;;;;;;;0.00;0.00;;;;;;;9.78;90.02;98564.56;15744148;28;20098;-44
2024/02/10 06:28:23;;;;;;;0.45;0.22;;;;;;;10.02;88.42;98566.84;15742452;28;20056;-44
2024/02/10 06:35:58;;;;;;;0.43;0.32;;;;;;;10.19;87.18;98573.63;15722023;28;20059;-46
2024/02/10 06:43:34;;;;;;;0.03;0.03;;;;;;;10.31;86.53;98584.19;15740469;28;20028;-47
2024/02/10 06:51:10;;;;;;;0.00;0.00;;;;;;;9.99;87.05;98594.97;15785655;28;20519;-45
2024/02/10 06:58:49;;;;;;;0.00;0.00;;;;;;;10.40;85.59;98601.41;15784768;28;20479;-45
2024/02/10 07:06:27;;;;;;;0.05;0.05;;;;;;;10.09;86.48;98610.31;15757710;28;20239;-46
2024/02/10 07:14:04;;;;;;;0.10;0.10;;;;;;;9.80;88.04;98615.22;15737940;28;20094;-45
2024/02/10 07:21:37;;;;;;;0.00;0.00;;;;;;;9.76;88.73;98616.78;15739868;28;20053;-48
2024/02/10 07:29:12;;;;;;;0.00;0.00;;;;;;;10.07;87.88;98634.72;15739001;28;20044;-45
2024/02/10 07:36:51;;;;;;;0.00;0.00;;;;;;;9.98;89.09;98638.94;15738757;28;20044;-47
2024/02/10 07:44:27;;;;;;;0.22;0.15;;;;;;;9.96;88.86;98641.84;15738454;28;20044;-47
2024/02/10 07:52:01;;;;;;;2.40;0.52;;;;;;;9.84;89.09;98660.00;15797793;28;20412;-47
2024/02/10 07:59:40;;;;;;;0.08;0.08;;;;;;;10.08;89.13;98660.44;15782683;28;20043;-46
2024/02/10 08:07:14;;;;;;;0.00;0.00;;;;;;;9.86;89.58;98662.41;15711997;28;20123;-47
2024/02/10 08:14:50;;;;;;;0.03;0.03;;;;;;;10.20;88.35;98663.72;15732345;28;20131;-46
2024/02/10 08:22:24;;;;;;;0.00;0.00;;;;;;;10.23;88.84;98667.75;15732325;28;20044;-45
2024/02/10 08:30:03;;;;;;;0.00;0.00;;;;;;;10.36;87.59;98663.84;15730610;28;20056;-47
2024/02/10 08:37:36;;;;;;;0.20;0.20;;;;;;;10.57;87.46;98678.16;15696802;28;20050;-46
2024/02/10 08:45:14;;;;;;;0.00;0.00;;;;;;;10.91;87.29;98681.25;15734039;28;20046;-48
2024/02/10 08:52:48;;;;;;;0.38;0.30;;;;;;;10.57;86.71;98678.97;15795077;28;20497;-49
2024/02/10 09:00:23;;;;;;;0.00;0.00;;;;;;;10.79;86.18;98686.88;15722955;28;20636;-45
2024/02/10 09:07:58;;;;;;;0.25;0.22;;;;;;;11.11;85.95;98675.19;15733453;28;20106;-47
2024/02/10 09:15:33;;;;;;;0.22;0.22;;;;;;;11.13;84.58;98687.25;15734928;28;20047;-46
2024/02/10 09:23:07;;;;;;;0.20;0.20;;;;;;;11.48;83.74;98693.78;15734675;28;20040;-46
2024/02/10 09:30:43;;;;;;;0.13;0.13;;;;;;;10.90;84.99;98707.31;15718274;28;20566;-45
2024/02/10 09:38:19;;;;;;;0.00;0.00;;;;;;;11.19;84.34;98710.38;15734459;28;20072;-45
2024/02/10 09:45:54;;;;;;;0.05;0.05;;;;;;;11.09;84.32;98718.38;15748710;28;20127;-47
2024/02/10 09:53:28;;;;;;;0.00;0.00;;;;;;;10.83;85.03;98719.38;15805432;28;20487;-48
2024/02/10 10:01:03;;;;;;;0.25;0.25;;;;;;;10.84;85.12;98727.16;15806195;28;20044;-47
2024/02/10 10:08:46;;;;;;;0.15;0.15;;;;;;;10.98;84.99;98727.47;15746305;28;20041;-50
2024/02/10 10:16:21;;;;;;;0.32;0.32;;;;;;;10.87;84.64;98726.63;15726317;28;20032;-47
2024/02/10 10:23:55;;;;;;;0.15;0.15;;;;;;;11.44;82.80;98723.06;15740000;28;20048;-48
2024/02/10 10:31:32;;;;;;;0.00;0.00;;;;;;;11.02;84.36;98711.66;15741084;28;20049;-49
2024/02/10 10:39:07;;;;;;;0.00;0.00;;;;;;;11.62;82.37;98726.34;15743661;28;20426;-47
2024/02/10 10:46:43;;;;;;;0.10;0.10;;;;;;;11.60;82.72;98725.78;15724276;28;20532;-48
2024/02/10 10:54:19;;;;;;;1.27;1.17;;;;;;;11.74;82.07;98721.50;15741448;28;20053;-48
2024/02/10 11:01:54;;;;;;;0.22;0.08;;;;;;;11.63;81.38;98712.63;15740813;28;20123;-49
2024/02/10 11:09:29;;;;;;;0.32;0.28;;;;;;;12.12;80.77;98712.13;15736933;28;20123;-49
2024/02/10 11:17:13;;;;;;;0.47;0.20;;;;;;;11.96;81.00;98703.25;15722117;28;20520;-47
2024/02/10 11:24:49;;;;;;;0.00;0.00;;;;;;;12.09;79.95;98709.19;15740145;28;20101;-48
2024/02/10 11:32:25;;;;;;;0.00;0.00;;;;;;;12.93;78.14;98702.28;15738756;28;20044;-48
2024/02/10 11:39:59;;;;;;;0.32;0.32;;;;;;;13.20;75.46;98691.91;15739064;28;20544;-45
2024/02/10 11:47:33;;;;;;;0.00;0.00;;;;;;;13.18;74.74;98698.66;15751828;28;20049;-47
2024/02/10 11:55:10;;;;;;;0.00;0.00;;;;;;;13.25;75.54;98694.63;15733433;28;20414;-48
2024/02/10 12:02:47;;;;;;;0.00;0.00;;;;;;;13.65;73.47;98698.13;15718560;28;20175;-48
2024/02/10 12:10:23;;;;;;;0.00;0.00;;;;;;;12.92;74.47;98700.66;15779973;28;20056;-48
2024/02/10 12:18:00;;;;;;;0.10;0.10;;;;;;;13.37;74.20;98705.03;15765540;28;20114;-47
2024/02/10 12:25:34;;;;;;;0.10;0.00;;;;;;;14.64;70.25;98680.81;15764690;28;20064;-50
2024/02/10 12:33:10;;;;;;;0.00;0.00;;;;;;;16.69;61.74;98672.00;15798225;28;20039;-49
2024/02/10 12:40:44;;;;;;;0.47;0.47;;;;;;;18.45;55.90;98668.53;15794233;28;20078;-47
2024/02/10 12:48:20;;;;;;;0.13;0.13;;;;;;;17.69;57.30;98661.19;15761580;28;20048;-48
2024/02/10 12:55:55;;;;;;;0.65;0.45;;;;;;;19.65;51.29;98648.22;15735495;28;20570;-48
2024/02/10 13:03:30;;;;;;;0.20;0.20;;;;;;;19.70;50.13;98642.59;15730474;28;20087;-50
2024/02/10 13:11:04;;;;;;;0.43;0.10;;;;;;;20.18;49.31;98632.56;15733599;28;20051;-50
2024/02/10 13:18:39;;;;;;;0.20;0.20;;;;;;;19.77;47.95;98617.59;15741663;28;20075;-49
2024/02/10 13:26:13;;;;;;;0.10;0.10;;;;;;;19.13;51.57;98606.56;15747242;28;20165;-52
2024/02/10 13:33:48;;;;;;;0.00;0.00;;;;;;;19.52;50.41;98611.84;15746227;28;20048;-51
2024/02/10 14:05:00;;;;;;;0.00;0.00;;;;;;;15.50;61.90;98632.94;15726937;28;20033;-53
2024/02/10 14:12:34;;;;;;;0.20;0.20;;;;;;;15.13;63.56;98639.94;15744505;28;20090;-48
2024/02/10 14:20:18;;;;;;;0.00;0.00;;;;;;;14.82;63.61;98639.53;15740856;28;20612;-48
2024/02/10 14:27:56;;;;;;;0.00;0.00;;;;;;;14.45;64.89;98645.63;15739080;28;20048;-50
2024/02/10 14:35:47;;;;;;;1.70;0.15;;;;;;;14.44;64.69;98649.41;15743184;28;20071;-52
2024/02/10 14:43:21;;;;;;;0.00;0.00;;;;;;;14.10;67.45;98649.50;15762942;28;20090;-52
2024/02/10 14:50:55;;;;;;;0.00;0.00;;;;;;;13.97;68.54;98670.63;15749362;28;20049;-54
2024/02/10 14:58:29;;;;;;;1.45;0.75;;;;;;;14.09;68.25;98658.69;15741429;28;20040;-49
2024/02/10 15:06:06;;;;;;;0.05;0.05;;;;;;;14.17;68.49;98666.94;15740579;28;20139;-50
2024/02/10 15:13:39;;;;;;;0.17;0.17;;;;;;;14.28;67.84;98660.38;15721088;28;20036;-51
2024/02/10 15:21:14;;;;;;;0.10;0.10;;;;;;;12.84;73.07;98674.31;15717289;28;20409;-49
2024/02/10 15:28:48;;;;;;;0.00;0.00;;;;;;;13.01;72.67;98672.88;15803021;28;20454;-50
2024/02/10 15:36:34;;;;;;;0.00;0.00;;;;;;;12.93;72.94;98686.13;15801611;28;20515;-50
2024/02/10 15:44:08;;;;;;;2.75;1.63;;;;;;;12.27;76.04;98684.44;15780275;28;20641;-50
2024/02/10 15:51:46;;;;;;;0.00;0.00;;;;;;;12.56;75.28;98686.50;15737031;28;20464;-52
2024/02/10 15:59:20;;;;;;;0.00;0.00;;;;;;;12.71;74.01;98698.03;15720302;28;20044;-49
2024/02/10 16:06:56;;;;;;;2.75;1.20;;;;;;;12.10;76.96;98708.09;15736684;28;20051;-49
2024/02/10 16:14:30;;;;;;;0.10;0.10;;;;;;;12.33;75.34;98706.75;15737250;28;20072;-52
2024/02/10 16:22:06;;;;;;;0.98;0.30;;;;;;;11.80;77.93;98709.69;15738064;28;20050;-51
2024/02/10 16:29:40;;;;;;;1.20;0.80;;;;;;;11.11;80.81;98705.53;15767900;28;20106;-52
2024/02/10 16:37:17;;;;;;;0.20;0.20;;;;;;;10.83;82.52;98708.63;15780391;28;20039;-51
2024/02/10 16:44:53;;;;;;;1.83;1.48;;;;;;;10.53;84.23;98704.69;15793520;28;20048;-48
2024/02/10 16:52:29;;;;;;;0.47;0.22;;;;;;;10.46;84.57;98704.16;15727128;28;20119;-51
2024/02/10 17:00:05;;;;;;;1.48;1.08;;;;;;;10.59;84.06;98705.56;15731335;28;20130;-47
2024/02/10 17:07:40;;;;;;;0.43;0.43;;;;;;;10.53;84.34;98696.66;15729185;28;20462;-50
2024/02/10 17:15:14;;;;;;;5.95;4.22;;;;;;;10.53;84.26;98680.56;15730452;28;20060;-47
2024/02/10 17:22:51;;;;;;;0.43;0.43;;;;;;;10.13;86.63;98687.28;15730878;28;20048;-50
2024/02/10 17:30:26;;;;;;;0.25;0.25;;;;;;;10.31;86.36;98678.03;15738780;28;20037;-51
2024/02/10 17:38:01;;;;;;;1.27;0.52;;;;;;;10.35;86.71;98689.03;15779633;28;20504;-48
2024/02/10 17:45:35;;;;;;;3.20;1.88;;;;;;;10.16;87.42;98688.63;15786038;28;20120;-52
2024/02/10 21:20:25;;;;;;;0.38;0.38;;;;;;;9.10;94.24;98683.94;15741834;28;20116;-50
2024/02/10 21:28:02;;;;;;;0.43;0.43;;;;;;;8.87;94.93;98682.34;15734169;28;20045;-47
2024/02/10 21:35:40;;;;;;;0.55;0.55;;;;;;;8.93;94.63;98667.94;15716634;28;20045;-49
2024/02/10 21:43:39;;;;;;;0.65;0.65;;;;;;;8.92;94.20;98663.66;15747543;28;20079;-49
2024/02/10 21:51:14;;;;;;;1.30;1.20;;;;;;;8.64;94.07;98624.56;15736288;22;20048;-53
2024/02/10 21:58:50;;;;;;;2.00;1.52;;;;;;;8.98;93.56;98669.88;15749634;28;20055;-57
2024/02/10 22:06:25;;;;;;;0.38;0.38;;;;;;;8.87;93.43;98663.59;15775185;28;20079;-53
2024/02/10 22:13:58;;;;;;;0.10;0.10;;;;;;;8.81;94.17;98654.72;15771934;28;20516;-55
2024/02/10 22:21:36;;;;;;;2.95;1.17;;;;;;;9.12;92.60;98663.88;15806652;28;20081;-56
2024/02/10 22:29:10;;;;;;;3.88;1.20;;;;;;;8.92;92.58;98652.97;15784679;28;20446;-53
2024/02/10 22:36:46;;;;;;;;;;;;;;;8.89;93.79;98659.59;15803166;28;20072;-51
2024/02/10 22:44:19;;;;;;;1.15;1.10;;;;;;;8.93;92.30;98655.38;15787681;28;20400;-51
2024/02/10 22:51:54;;;;;;;6.63;1.65;;;;;;;8.69;94.25;98657.50;15800212;28;20047;-51
2024/02/10 22:59:28;;;;;;;1.88;1.63;;;;;;;8.61;94.41;98654.47;15787039;28;20044;-49
2024/02/10 23:07:02;;;;;;;;;;;;;;;8.93;92.63;98663.41;15759704;28;20123;-48
2024/02/10 23:14:36;;;;;;;1.38;1.08;;;;;;;8.76;93.71;98653.84;15740331;28;19920;-49
2024/02/10 23:22:14;;;;;;;;;;;;;;;8.65;94.27;98652.91;15722422;28;20048;-51
2024/02/10 23:29:47;;;;;;;0.40;0.40;;;;;;;8.61;93.43;98636.53;15789645;28;20441;-52
2024/02/10 23:37:22;;;;;;;8.15;2.58;;;;;;;8.89;93.20;98640.06;15798952;28;20044;-48
2024/02/10 23:44:57;;;;;;;1.55;1.45;;;;;;;8.77;93.96;98636.75;15798185;28;20035;-53
2024/02/10 23:52:32;;;;;;;2.03;0.75;;;;;;;8.72;93.68;98617.94;15735578;28;20049;-50
